sensor_id;sensor_type;location;lat;lon;timestamp;temperature;humidity
37426;DHT22;23285;50.180;7.036;2023-05-20T00:08:59;12.80;99.90
37426;DHT22;23285;50.180;7.036;2023-05-20T00:11:45;12.70;99.90
37426;DHT22;23285;50.180;7.036;2023-05-20T00:14:32;12.70;99.90
37426;DHT22;23285;50.180;7.036;2023-05-20T00:22:53;12.90;99.90
37426;DHT22;23285;50.180;7.036;2023-05-20T00:25:39;13.20;99.90
37426;DHT22;23285;50.180;7.036;2023-05-20T00:28:26;13.30;99.90
37426;DHT22;23285;50.180;7.036;2023-05-20T00:31:12;13.80;99.90
37426;DHT22;23285;50.180;7.036;2023-05-20T00:34:00;13.60;99.90
37426;DHT22;23285;50.180;7.036;2023-05-20T00:39:33;13.10;99.90
37426;DHT22;23285;50.180;7.036;2023-05-20T00:42:19;12.60;99.90
37426;DHT22;23285;50.180;7.036;2023-05-20T00:47:53;12.70;99.90
37426;DHT22;23285;50.180;7.036;2023-05-20T00:50:45;12.40;99.90
37426;DHT22;23285;50.180;7.036;2023-05-20T00:53:31;12.40;99.90
37426;DHT22;23285;50.180;7.036;2023-05-20T00:56:19;12.40;99.90
37426;DHT22;23285;50.180;7.036;2023-05-20T00:59:07;12.50;99.90
37426;DHT22;23285;50.180;7.036;2023-05-20T01:07:32;12.50;99.90
37426;DHT22;23285;50.180;7.036;2023-05-20T01:10:19;12.50;99.90
37426;DHT22;23285;50.180;7.036;2023-05-20T01:15:54;12.50;99.90
37426;DHT22;23285;50.180;7.036;2023-05-20T01:18:41;12.40;99.90
37426;DHT22;23285;50.180;7.036;2023-05-20T01:21:29;12.40;99.90
37426;DHT22;23285;50.180;7.036;2023-05-20T01:24:17;12.30;99.90
37426;DHT22;23285;50.180;7.036;2023-05-20T01:27:03;12.70;99.90
37426;DHT22;23285;50.180;7.036;2023-05-20T01:32:44;12.40;99.90
37426;DHT22;23285;50.180;7.036;2023-05-20T01:35:34;12.40;99.90
37426;DHT22;23285;50.180;7.036;2023-05-20T01:38:21;12.00;99.90
37426;DHT22;23285;50.180;7.036;2023-05-20T01:41:10;12.00;99.90
37426;DHT22;23285;50.180;7.036;2023-05-20T01:43:57;12.20;99.90
37426;DHT22;23285;50.180;7.036;2023-05-20T01:46:48;12.20;99.90
37426;DHT22;23285;50.180;7.036;2023-05-20T01:52:22;12.40;99.90
37426;DHT22;23285;50.180;7.036;2023-05-20T01:55:08;12.50;99.90
37426;DHT22;23285;50.180;7.036;2023-05-20T01:57:56;13.00;99.90
37426;DHT22;23285;50.180;7.036;2023-05-20T02:00:44;12.90;99.90
37426;DHT22;23285;50.180;7.036;2023-05-20T02:06:17;12.90;99.90
37426;DHT22;23285;50.180;7.036;2023-05-20T02:09:04;12.40;99.90
37426;DHT22;23285;50.180;7.036;2023-05-20T02:11:50;12.60;99.90
37426;DHT22;23285;50.180;7.036;2023-05-20T02:14:38;12.30;99.90
37426;DHT22;23285;50.180;7.036;2023-05-20T02:20:12;12.00;99.90
37426;DHT22;23285;50.180;7.036;2023-05-20T02:25:45;12.00;99.90
37426;DHT22;23285;50.180;7.036;2023-05-20T02:31:20;12.00;99.90
37426;DHT22;23285;50.180;7.036;2023-05-20T02:36:53;12.00;99.90
37426;DHT22;23285;50.180;7.036;2023-05-20T02:39:40;11.60;99.90
37426;DHT22;23285;50.180;7.036;2023-05-20T02:42:26;11.80;99.90
37426;DHT22;23285;50.180;7.036;2023-05-20T02:45:13;11.60;99.90
37426;DHT22;23285;50.180;7.036;2023-05-20T02:48:00;11.60;99.90
37426;DHT22;23285;50.180;7.036;2023-05-20T02:50:47;11.40;99.90
37426;DHT22;23285;50.180;7.036;2023-05-20T02:53:33;11.70;99.90
37426;DHT22;23285;50.180;7.036;2023-05-20T02:56:19;12.00;99.90
37426;DHT22;23285;50.180;7.036;2023-05-20T02:59:05;12.10;99.90
37426;DHT22;23285;50.180;7.036;2023-05-20T03:04:41;12.20;99.90
37426;DHT22;23285;50.180;7.036;2023-05-20T03:10:17;12.30;99.90
37426;DHT22;23285;50.180;7.036;2023-05-20T03:13:05;12.00;99.90
37426;DHT22;23285;50.180;7.036;2023-05-20T03:21:30;12.20;99.90
37426;DHT22;23285;50.180;7.036;2023-05-20T03:24:16;12.00;99.90
37426;DHT22;23285;50.180;7.036;2023-05-20T03:27:05;12.10;99.90
37426;DHT22;23285;50.180;7.036;2023-05-20T03:32:41;11.90;99.90
37426;DHT22;23285;50.180;7.036;2023-05-20T03:35:27;12.10;99.90
37426;DHT22;23285;50.180;7.036;2023-05-20T03:38:15;11.90;99.90
37426;DHT22;23285;50.180;7.036;2023-05-20T03:41:02;11.90;99.90
37426;DHT22;23285;50.180;7.036;2023-05-20T03:43:48;12.00;99.90
37426;DHT22;23285;50.180;7.036;2023-05-20T03:46:34;12.10;99.90
37426;DHT22;23285;50.180;7.036;2023-05-20T03:49:21;12.30;99.90
37426;DHT22;23285;50.180;7.036;2023-05-20T03:52:07;12.20;99.90
37426;DHT22;23285;50.180;7.036;2023-05-20T03:57:41;12.60;99.90
37426;DHT22;23285;50.180;7.036;2023-05-20T04:03:15;12.50;99.90
37426;DHT22;23285;50.180;7.036;2023-05-20T04:06:03;12.30;99.90
37426;DHT22;23285;50.180;7.036;2023-05-20T04:08:50;12.20;99.90
37426;DHT22;23285;50.180;7.036;2023-05-20T04:11:40;12.30;99.90
37426;DHT22;23285;50.180;7.036;2023-05-20T04:20:00;11.90;99.90
37426;DHT22;23285;50.180;7.036;2023-05-20T04:22:47;11.90;99.90
37426;DHT22;23285;50.180;7.036;2023-05-20T04:28:22;12.00;99.90
37426;DHT22;23285;50.180;7.036;2023-05-20T04:33:59;11.90;99.90
37426;DHT22;23285;50.180;7.036;2023-05-20T04:36:47;12.00;99.90
37426;DHT22;23285;50.180;7.036;2023-05-20T04:39:33;12.20;99.90
37426;DHT22;23285;50.180;7.036;2023-05-20T04:42:21;12.00;99.90
37426;DHT22;23285;50.180;7.036;2023-05-20T04:47:56;11.90;99.90
37426;DHT22;23285;50.180;7.036;2023-05-20T04:50:43;12.00;99.90
37426;DHT22;23285;50.180;7.036;2023-05-20T05:01:54;12.50;99.90
37426;DHT22;23285;50.180;7.036;2023-05-20T05:07:28;12.40;99.90
37426;DHT22;23285;50.180;7.036;2023-05-20T05:10:14;12.60;99.90
37426;DHT22;23285;50.180;7.036;2023-05-20T05:13:04;12.90;99.90
37426;DHT22;23285;50.180;7.036;2023-05-20T05:15:57;13.10;99.90
37426;DHT22;23285;50.180;7.036;2023-05-20T05:18:46;12.90;99.90
37426;DHT22;23285;50.180;7.036;2023-05-20T05:21:33;12.80;99.90
37426;DHT22;23285;50.180;7.036;2023-05-20T05:24:19;12.60;99.90
37426;DHT22;23285;50.180;7.036;2023-05-20T05:27:06;12.60;99.90
37426;DHT22;23285;50.180;7.036;2023-05-20T05:29:52;12.60;99.90
37426;DHT22;23285;50.180;7.036;2023-05-20T05:32:39;12.80;99.90
37426;DHT22;23285;50.180;7.036;2023-05-20T05:35:27;13.00;99.90
37426;DHT22;23285;50.180;7.036;2023-05-20T05:38:13;12.90;99.90
37426;DHT22;23285;50.180;7.036;2023-05-20T05:40:59;12.80;99.90
37426;DHT22;23285;50.180;7.036;2023-05-20T05:43:47;12.90;99.90
37426;DHT22;23285;50.180;7.036;2023-05-20T05:46:33;13.10;99.90
37426;DHT22;23285;50.180;7.036;2023-05-20T05:52:07;13.10;99.90
37426;DHT22;23285;50.180;7.036;2023-05-20T05:54:54;13.30;99.90
37426;DHT22;23285;50.180;7.036;2023-05-20T05:57:40;13.30;99.90
37426;DHT22;23285;50.180;7.036;2023-05-20T06:03:14;13.10;99.90
37426;DHT22;23285;50.180;7.036;2023-05-20T06:06:00;13.20;99.90
37426;DHT22;23285;50.180;7.036;2023-05-20T06:11:34;13.30;99.90
37426;DHT22;23285;50.180;7.036;2023-05-20T06:17:08;12.90;99.90
37426;DHT22;23285;50.180;7.036;2023-05-20T06:19:54;13.00;99.90
37426;DHT22;23285;50.180;7.036;2023-05-20T06:25:29;13.30;99.90
37426;DHT22;23285;50.180;7.036;2023-05-20T06:28:16;13.30;99.90
37426;DHT22;23285;50.180;7.036;2023-05-20T06:31:02;13.20;99.90
37426;DHT22;23285;50.180;7.036;2023-05-20T06:33:51;13.30;99.90
37426;DHT22;23285;50.180;7.036;2023-05-20T06:36:39;13.50;99.90
37426;DHT22;23285;50.180;7.036;2023-05-20T06:39:26;13.40;99.90
37426;DHT22;23285;50.180;7.036;2023-05-20T06:45:07;13.80;99.90
37426;DHT22;23285;50.180;7.036;2023-05-20T06:47:59;13.70;99.90
37426;DHT22;23285;50.180;7.036;2023-05-20T06:50:45;13.60;99.90
37426;DHT22;23285;50.180;7.036;2023-05-20T06:53:31;13.70;99.90
37426;DHT22;23285;50.180;7.036;2023-05-20T06:56:18;13.70;99.90
37426;DHT22;23285;50.180;7.036;2023-05-20T06:59:06;14.00;99.90
37426;DHT22;23285;50.180;7.036;2023-05-20T07:01:54;14.30;99.90
37426;DHT22;23285;50.180;7.036;2023-05-20T07:07:27;13.90;99.90
37426;DHT22;23285;50.180;7.036;2023-05-20T07:10:13;13.90;99.90
37426;DHT22;23285;50.180;7.036;2023-05-20T07:13:00;13.80;99.90
37426;DHT22;23285;50.180;7.036;2023-05-20T07:15:48;14.20;99.90
37426;DHT22;23285;50.180;7.036;2023-05-20T07:18:35;14.30;99.90
37426;DHT22;23285;50.180;7.036;2023-05-20T07:21:22;14.30;99.90
37426;DHT22;23285;50.180;7.036;2023-05-20T07:24:32;14.40;99.90
37426;DHT22;23285;50.180;7.036;2023-05-20T07:27:18;14.50;99.90
37426;DHT22;23285;50.180;7.036;2023-05-20T07:32:55;14.50;99.90
37426;DHT22;23285;50.180;7.036;2023-05-20T07:35:41;14.60;99.90
37426;DHT22;23285;50.180;7.036;2023-05-20T07:38:28;14.70;99.90
37426;DHT22;23285;50.180;7.036;2023-05-20T07:49:50;14.90;99.90
37426;DHT22;23285;50.180;7.036;2023-05-20T07:52:37;15.10;99.90
37426;DHT22;23285;50.180;7.036;2023-05-20T07:55:24;15.00;99.90
37426;DHT22;23285;50.180;7.036;2023-05-20T07:58:10;15.10;99.90
37426;DHT22;23285;50.180;7.036;2023-05-20T08:00:57;15.30;99.90
37426;DHT22;23285;50.180;7.036;2023-05-20T08:03:44;15.60;99.90
37426;DHT22;23285;50.180;7.036;2023-05-20T08:06:35;15.80;99.90
37426;DHT22;23285;50.180;7.036;2023-05-20T08:12:13;15.50;99.90
37426;DHT22;23285;50.180;7.036;2023-05-20T08:14:59;16.00;99.90
37426;DHT22;23285;50.180;7.036;2023-05-20T08:17:46;15.60;99.90
37426;DHT22;23285;50.180;7.036;2023-05-20T08:20:32;15.80;99.90
37426;DHT22;23285;50.180;7.036;2023-05-20T08:23:20;15.80;99.90
37426;DHT22;23285;50.180;7.036;2023-05-20T08:26:07;15.70;99.90
37426;DHT22;23285;50.180;7.036;2023-05-20T08:28:56;15.50;99.90
37426;DHT22;23285;50.180;7.036;2023-05-20T08:31:44;15.90;99.90
37426;DHT22;23285;50.180;7.036;2023-05-20T08:34:31;16.10;99.90
37426;DHT22;23285;50.180;7.036;2023-05-20T08:37:17;16.00;99.90
37426;DHT22;23285;50.180;7.036;2023-05-20T08:42:55;15.60;99.90
37426;DHT22;23285;50.180;7.036;2023-05-20T08:45:43;15.40;99.90
37426;DHT22;23285;50.180;7.036;2023-05-20T08:54:07;16.30;99.90
37426;DHT22;23285;50.180;7.036;2023-05-20T08:56:57;16.50;99.90
37426;DHT22;23285;50.180;7.036;2023-05-20T08:59:45;16.90;99.90
37426;DHT22;23285;50.180;7.036;2023-05-20T09:02:31;17.40;99.90
37426;DHT22;23285;50.180;7.036;2023-05-20T09:05:18;17.10;99.90
37426;DHT22;23285;50.180;7.036;2023-05-20T09:08:05;16.90;99.90
37426;DHT22;23285;50.180;7.036;2023-05-20T09:10:52;16.40;99.90
37426;DHT22;23285;50.180;7.036;2023-05-20T09:16:26;16.40;99.90
37426;DHT22;23285;50.180;7.036;2023-05-20T09:22:03;16.70;99.90
37426;DHT22;23285;50.180;7.036;2023-05-20T09:27:36;16.80;99.90
37426;DHT22;23285;50.180;7.036;2023-05-20T09:30:24;16.80;99.90
37426;DHT22;23285;50.180;7.036;2023-05-20T09:33:11;16.60;99.90
37426;DHT22;23285;50.180;7.036;2023-05-20T09:36:05;16.40;99.90
37426;DHT22;23285;50.180;7.036;2023-05-20T09:38:59;16.80;99.90
37426;DHT22;23285;50.180;7.036;2023-05-20T09:41:54;17.40;99.90
37426;DHT22;23285;50.180;7.036;2023-05-20T09:44:42;17.20;99.90
37426;DHT22;23285;50.180;7.036;2023-05-20T09:47:36;17.60;99.90
37426;DHT22;23285;50.180;7.036;2023-05-20T09:50:27;17.00;99.90
37426;DHT22;23285;50.180;7.036;2023-05-20T09:53:13;17.20;99.90
37426;DHT22;23285;50.180;7.036;2023-05-20T09:58:48;17.10;99.90
37426;DHT22;23285;50.180;7.036;2023-05-20T10:01:36;17.00;99.90
37426;DHT22;23285;50.180;7.036;2023-05-20T10:04:24;17.60;99.90
37426;DHT22;23285;50.180;7.036;2023-05-20T10:07:37;17.90;99.90
37426;DHT22;23285;50.180;7.036;2023-05-20T10:13:29;18.40;99.90
37426;DHT22;23285;50.180;7.036;2023-05-20T10:16:37;18.40;99.90
37426;DHT22;23285;50.180;7.036;2023-05-20T10:19:31;18.20;99.90
37426;DHT22;23285;50.180;7.036;2023-05-20T10:25:23;18.80;99.90
37426;DHT22;23285;50.180;7.036;2023-05-20T10:30:58;19.30;99.90
37426;DHT22;23285;50.180;7.036;2023-05-20T10:33:45;18.80;99.90
37426;DHT22;23285;50.180;7.036;2023-05-20T10:39:25;18.60;99.90
37426;DHT22;23285;50.180;7.036;2023-05-20T10:44:58;19.00;99.90
37426;DHT22;23285;50.180;7.036;2023-05-20T10:50:39;20.00;99.90
37426;DHT22;23285;50.180;7.036;2023-05-20T10:53:27;20.30;99.90
37426;DHT22;23285;50.180;7.036;2023-05-20T10:56:18;19.70;99.90
37426;DHT22;23285;50.180;7.036;2023-05-20T10:59:05;19.80;99.90
37426;DHT22;23285;50.180;7.036;2023-05-20T11:01:52;19.20;99.90
37426;DHT22;23285;50.180;7.036;2023-05-20T11:04:41;18.90;99.90
37426;DHT22;23285;50.180;7.036;2023-05-20T11:07:29;19.30;99.90
37426;DHT22;23285;50.180;7.036;2023-05-20T11:10:20;19.50;99.90
37426;DHT22;23285;50.180;7.036;2023-05-20T11:13:08;19.60;99.90
37426;DHT22;23285;50.180;7.036;2023-05-20T11:15:57;20.20;99.90
37426;DHT22;23285;50.180;7.036;2023-05-20T11:18:43;20.40;99.90
37426;DHT22;23285;50.180;7.036;2023-05-20T11:21:33;20.10;99.90
37426;DHT22;23285;50.180;7.036;2023-05-20T11:27:12;20.50;99.90
37426;DHT22;23285;50.180;7.036;2023-05-20T11:29:58;20.90;99.90
37426;DHT22;23285;50.180;7.036;2023-05-20T11:32:55;21.10;99.90
37426;DHT22;23285;50.180;7.036;2023-05-20T11:38:30;20.50;99.90
37426;DHT22;23285;50.180;7.036;2023-05-20T11:41:16;20.50;99.90
37426;DHT22;23285;50.180;7.036;2023-05-20T11:44:11;20.70;99.90
37426;DHT22;23285;50.180;7.036;2023-05-20T11:49:48;21.10;99.90
37426;DHT22;23285;50.180;7.036;2023-05-20T11:52:34;20.60;99.90
37426;DHT22;23285;50.180;7.036;2023-05-20T11:55:20;20.20;99.90
37426;DHT22;23285;50.180;7.036;2023-05-20T11:58:06;20.10;99.90
37426;DHT22;23285;50.180;7.036;2023-05-20T12:00:54;19.60;99.90
37426;DHT22;23285;50.180;7.036;2023-05-20T12:03:40;19.50;99.90
37426;DHT22;23285;50.180;7.036;2023-05-20T12:09:13;19.60;99.90
37426;DHT22;23285;50.180;7.036;2023-05-20T12:20:30;20.00;99.90
37426;DHT22;23285;50.180;7.036;2023-05-20T12:23:18;19.80;99.90
37426;DHT22;23285;50.180;7.036;2023-05-20T12:26:05;19.70;99.90
37426;DHT22;23285;50.180;7.036;2023-05-20T12:28:52;19.80;99.90
37426;DHT22;23285;50.180;7.036;2023-05-20T12:31:38;19.90;99.90
37426;DHT22;23285;50.180;7.036;2023-05-20T12:37:12;19.70;99.90
37426;DHT22;23285;50.180;7.036;2023-05-20T12:39:59;19.40;99.90
37426;DHT22;23285;50.180;7.036;2023-05-20T12:42:45;18.90;99.90
37426;DHT22;23285;50.180;7.036;2023-05-20T12:45:31;19.10;99.90
37426;DHT22;23285;50.180;7.036;2023-05-20T12:48:18;19.50;99.90
37426;DHT22;23285;50.180;7.036;2023-05-20T12:51:06;19.70;99.90
37426;DHT22;23285;50.180;7.036;2023-05-20T12:53:52;19.80;99.90
37426;DHT22;23285;50.180;7.036;2023-05-20T13:02:11;20.10;99.90
37426;DHT22;23285;50.180;7.036;2023-05-20T13:04:57;20.50;99.90
37426;DHT22;23285;50.180;7.036;2023-05-20T13:10:32;20.60;99.90
37426;DHT22;23285;50.180;7.036;2023-05-20T13:13:18;20.70;99.90
37426;DHT22;23285;50.180;7.036;2023-05-20T13:16:06;20.40;99.90
37426;DHT22;23285;50.180;7.036;2023-05-20T13:24:27;21.30;99.90
37426;DHT22;23285;50.180;7.036;2023-05-20T13:27:13;21.30;99.90
37426;DHT22;23285;50.180;7.036;2023-05-20T13:29:59;21.10;99.90
37426;DHT22;23285;50.180;7.036;2023-05-20T13:32:47;20.70;99.90
37426;DHT22;23285;50.180;7.036;2023-05-20T13:35:33;21.10;99.90
37426;DHT22;23285;50.180;7.036;2023-05-20T13:38:19;21.30;99.90
37426;DHT22;23285;50.180;7.036;2023-05-20T13:43:54;20.60;99.90
37426;DHT22;23285;50.180;7.036;2023-05-20T13:46:40;20.40;99.90
37426;DHT22;23285;50.180;7.036;2023-05-20T13:49:26;20.50;99.90
37426;DHT22;23285;50.180;7.036;2023-05-20T13:52:12;20.10;99.90
37426;DHT22;23285;50.180;7.036;2023-05-20T13:54:58;20.40;99.90
37426;DHT22;23285;50.180;7.036;2023-05-20T13:57:46;20.50;99.90
37426;DHT22;23285;50.180;7.036;2023-05-20T14:00:32;20.10;99.90
37426;DHT22;23285;50.180;7.036;2023-05-20T14:03:18;19.80;99.90
37426;DHT22;23285;50.180;7.036;2023-05-20T14:06:04;19.90;99.90
37426;DHT22;23285;50.180;7.036;2023-05-20T14:08:53;20.20;99.90
37426;DHT22;23285;50.180;7.036;2023-05-20T14:11:39;20.10;99.90
37426;DHT22;23285;50.180;7.036;2023-05-20T14:14:27;19.90;99.90
37426;DHT22;23285;50.180;7.036;2023-05-20T14:17:13;20.00;99.90
37426;DHT22;23285;50.180;7.036;2023-05-20T14:20:00;20.00;99.90
37426;DHT22;23285;50.180;7.036;2023-05-20T14:28:19;19.60;99.90
37426;DHT22;23285;50.180;7.036;2023-05-20T14:33:54;20.50;99.90
37426;DHT22;23285;50.180;7.036;2023-05-20T14:36:41;20.50;99.90
37426;DHT22;23285;50.180;7.036;2023-05-20T14:39:27;20.40;99.90
37426;DHT22;23285;50.180;7.036;2023-05-20T14:47:49;20.40;99.90
37426;DHT22;23285;50.180;7.036;2023-05-20T14:56:08;20.00;99.90
37426;DHT22;23285;50.180;7.036;2023-05-20T14:58:55;19.90;99.90
37426;DHT22;23285;50.180;7.036;2023-05-20T15:01:41;20.10;99.90
37426;DHT22;23285;50.180;7.036;2023-05-20T15:07:16;19.40;99.90
37426;DHT22;23285;50.180;7.036;2023-05-20T15:10:03;19.50;99.90
37426;DHT22;23285;50.180;7.036;2023-05-20T15:12:49;19.60;99.90
37426;DHT22;23285;50.180;7.036;2023-05-20T15:15:37;19.60;99.90
37426;DHT22;23285;50.180;7.036;2023-05-20T15:18:23;19.70;99.90
37426;DHT22;23285;50.180;7.036;2023-05-20T15:21:11;19.40;99.90
37426;DHT22;23285;50.180;7.036;2023-05-20T15:26:44;19.00;99.90
37426;DHT22;23285;50.180;7.036;2023-05-20T15:32:17;19.40;99.90
37426;DHT22;23285;50.180;7.036;2023-05-20T15:35:04;19.20;99.90
37426;DHT22;23285;50.180;7.036;2023-05-20T15:40:39;18.70;99.90
37426;DHT22;23285;50.180;7.036;2023-05-20T15:46:12;18.80;99.90
37426;DHT22;23285;50.180;7.036;2023-05-20T15:48:59;18.90;99.90
37426;DHT22;23285;50.180;7.036;2023-05-20T15:51:45;18.50;99.90
37426;DHT22;23285;50.180;7.036;2023-05-20T15:54:33;18.70;99.90
37426;DHT22;23285;50.180;7.036;2023-05-20T16:00:07;19.00;99.90
37426;DHT22;23285;50.180;7.036;2023-05-20T16:02:54;19.20;99.90
37426;DHT22;23285;50.180;7.036;2023-05-20T16:05:41;19.10;99.90
37426;DHT22;23285;50.180;7.036;2023-05-20T16:08:27;18.80;99.90
37426;DHT22;23285;50.180;7.036;2023-05-20T16:11:15;18.60;99.90
37426;DHT22;23285;50.180;7.036;2023-05-20T16:14:01;18.90;99.90
37426;DHT22;23285;50.180;7.036;2023-05-20T16:16:48;18.70;99.90
37426;DHT22;23285;50.180;7.036;2023-05-20T16:19:34;18.50;99.90
37426;DHT22;23285;50.180;7.036;2023-05-20T16:22:20;18.50;99.90
37426;DHT22;23285;50.180;7.036;2023-05-20T16:25:07;18.80;99.90
37426;DHT22;23285;50.180;7.036;2023-05-20T16:27:56;18.50;99.90
37426;DHT22;23285;50.180;7.036;2023-05-20T16:30:45;18.30;99.90
37426;DHT22;23285;50.180;7.036;2023-05-20T16:33:31;18.20;99.90
37426;DHT22;23285;50.180;7.036;2023-05-20T16:36:17;18.40;99.90
37426;DHT22;23285;50.180;7.036;2023-05-20T16:39:04;18.40;99.90
37426;DHT22;23285;50.180;7.036;2023-05-20T16:41:51;18.80;99.90
37426;DHT22;23285;50.180;7.036;2023-05-20T16:44:39;18.70;99.90
37426;DHT22;23285;50.180;7.036;2023-05-20T16:47:25;18.70;99.90
37426;DHT22;23285;50.180;7.036;2023-05-20T16:52:58;18.80;99.90
37426;DHT22;23285;50.180;7.036;2023-05-20T16:55:44;18.80;99.90
37426;DHT22;23285;50.180;7.036;2023-05-20T16:58:31;18.90;99.90
37426;DHT22;23285;50.180;7.036;2023-05-20T17:01:19;19.00;99.90
37426;DHT22;23285;50.180;7.036;2023-05-20T17:04:05;19.30;99.90
37426;DHT22;23285;50.180;7.036;2023-05-20T17:06:51;19.60;99.90
37426;DHT22;23285;50.180;7.036;2023-05-20T17:09:38;19.10;99.90
37426;DHT22;23285;50.180;7.036;2023-05-20T17:12:24;19.10;99.90
37426;DHT22;23285;50.180;7.036;2023-05-20T17:15:10;19.20;99.90
37426;DHT22;23285;50.180;7.036;2023-05-20T17:17:58;18.80;99.90
37426;DHT22;23285;50.180;7.036;2023-05-20T17:20:44;18.70;99.90
37426;DHT22;23285;50.180;7.036;2023-05-20T17:23:31;19.40;99.90
37426;DHT22;23285;50.180;7.036;2023-05-20T17:26:17;19.70;99.90
37426;DHT22;23285;50.180;7.036;2023-05-20T17:29:03;19.60;99.90
37426;DHT22;23285;50.180;7.036;2023-05-20T17:31:50;19.80;99.90
37426;DHT22;23285;50.180;7.036;2023-05-20T17:34:37;19.70;99.90
37426;DHT22;23285;50.180;7.036;2023-05-20T17:37:24;19.70;99.90
37426;DHT22;23285;50.180;7.036;2023-05-20T17:40:12;20.00;99.90
37426;DHT22;23285;50.180;7.036;2023-05-20T17:42:58;19.70;99.90
37426;DHT22;23285;50.180;7.036;2023-05-20T17:45:44;18.90;99.90
37426;DHT22;23285;50.180;7.036;2023-05-20T17:51:19;18.80;99.90
37426;DHT22;23285;50.180;7.036;2023-05-20T17:54:05;18.90;99.90
37426;DHT22;23285;50.180;7.036;2023-05-20T17:56:52;19.40;99.90
37426;DHT22;23285;50.180;7.036;2023-05-20T18:02:25;19.70;99.90
37426;DHT22;23285;50.180;7.036;2023-05-20T18:10:48;18.60;99.90
37426;DHT22;23285;50.180;7.036;2023-05-20T18:13:35;18.20;99.90
37426;DHT22;23285;50.180;7.036;2023-05-20T18:16:21;18.10;99.90
37426;DHT22;23285;50.180;7.036;2023-05-20T18:19:07;17.90;99.90
37426;DHT22;23285;50.180;7.036;2023-05-20T18:21:54;17.80;99.90
37426;DHT22;23285;50.180;7.036;2023-05-20T18:38:36;17.70;99.90
37426;DHT22;23285;50.180;7.036;2023-05-20T18:44:10;17.80;99.90
37426;DHT22;23285;50.180;7.036;2023-05-20T18:49:43;17.70;99.90
37426;DHT22;23285;50.180;7.036;2023-05-20T18:52:29;17.60;99.90
37426;DHT22;23285;50.180;7.036;2023-05-20T18:55:15;18.00;99.90
37426;DHT22;23285;50.180;7.036;2023-05-20T18:58:03;17.70;99.90
37426;DHT22;23285;50.180;7.036;2023-05-20T19:00:49;17.70;99.90
37426;DHT22;23285;50.180;7.036;2023-05-20T19:09:08;17.50;99.90
37426;DHT22;23285;50.180;7.036;2023-05-20T19:11:54;17.40;99.90
37426;DHT22;23285;50.180;7.036;2023-05-20T19:14:44;17.70;99.90
37426;DHT22;23285;50.180;7.036;2023-05-20T19:17:30;17.70;99.90
37426;DHT22;23285;50.180;7.036;2023-05-20T19:20:16;17.50;99.90
37426;DHT22;23285;50.180;7.036;2023-05-20T19:23:03;17.60;99.90
37426;DHT22;23285;50.180;7.036;2023-05-20T19:28:35;17.80;99.90
37426;DHT22;23285;50.180;7.036;2023-05-20T19:34:09;17.70;99.90
37426;DHT22;23285;50.180;7.036;2023-05-20T19:36:55;17.60;99.90
37426;DHT22;23285;50.180;7.036;2023-05-20T19:39:42;17.60;99.90
37426;DHT22;23285;50.180;7.036;2023-05-20T19:42:28;17.50;99.90
37426;DHT22;23285;50.180;7.036;2023-05-20T19:48:02;17.60;99.90
37426;DHT22;23285;50.180;7.036;2023-05-20T19:50:48;17.20;99.90
37426;DHT22;23285;50.180;7.036;2023-05-20T19:53:34;17.30;99.90
37426;DHT22;23285;50.180;7.036;2023-05-20T19:56:21;17.20;99.90
37426;DHT22;23285;50.180;7.036;2023-05-20T19:59:08;17.20;99.90
37426;DHT22;23285;50.180;7.036;2023-05-20T20:01:54;16.90;99.90
37426;DHT22;23285;50.180;7.036;2023-05-20T20:04:42;16.90;99.90
37426;DHT22;23285;50.180;7.036;2023-05-20T20:10:16;16.30;99.90
37426;DHT22;23285;50.180;7.036;2023-05-20T20:13:02;16.20;99.90
37426;DHT22;23285;50.180;7.036;2023-05-20T20:18:35;16.30;99.90
37426;DHT22;23285;50.180;7.036;2023-05-20T20:21:23;16.30;99.90
37426;DHT22;23285;50.180;7.036;2023-05-20T20:35:16;16.90;99.90
37426;DHT22;23285;50.180;7.036;2023-05-20T20:38:04;16.70;99.90
37426;DHT22;23285;50.180;7.036;2023-05-20T20:40:53;16.70;99.90
37426;DHT22;23285;50.180;7.036;2023-05-20T20:43:40;16.70;99.90
37426;DHT22;23285;50.180;7.036;2023-05-20T20:46:28;16.70;99.90
37426;DHT22;23285;50.180;7.036;2023-05-20T20:49:15;16.30;99.90
37426;DHT22;23285;50.180;7.036;2023-05-20T20:52:02;16.30;99.90
37426;DHT22;23285;50.180;7.036;2023-05-20T20:54:49;16.30;99.90
37426;DHT22;23285;50.180;7.036;2023-05-20T20:57:37;16.20;99.90
37426;DHT22;23285;50.180;7.036;2023-05-20T21:03:12;16.10;99.90
37426;DHT22;23285;50.180;7.036;2023-05-20T21:11:33;15.60;99.90
37426;DHT22;23285;50.180;7.036;2023-05-20T21:14:21;16.00;99.90
37426;DHT22;23285;50.180;7.036;2023-05-20T21:19:55;16.40;99.90
37426;DHT22;23285;50.180;7.036;2023-05-20T21:22:41;16.20;99.90
37426;DHT22;23285;50.180;7.036;2023-05-20T21:28:16;16.50;99.90
37426;DHT22;23285;50.180;7.036;2023-05-20T21:31:02;16.30;99.90
37426;DHT22;23285;50.180;7.036;2023-05-20T21:33:48;16.40;99.90
37426;DHT22;23285;50.180;7.036;2023-05-20T21:36:35;16.10;99.90
37426;DHT22;23285;50.180;7.036;2023-05-20T21:44:55;16.10;99.90
37426;DHT22;23285;50.180;7.036;2023-05-20T21:47:42;16.20;99.90
37426;DHT22;23285;50.180;7.036;2023-05-20T21:50:30;15.90;99.90
37426;DHT22;23285;50.180;7.036;2023-05-20T21:53:16;16.00;99.90
37426;DHT22;23285;50.180;7.036;2023-05-20T21:56:02;15.80;99.90
37426;DHT22;23285;50.180;7.036;2023-05-20T22:07:12;16.00;99.90
37426;DHT22;23285;50.180;7.036;2023-05-20T22:09:58;15.90;99.90
37426;DHT22;23285;50.180;7.036;2023-05-20T22:15:34;15.70;99.90
37426;DHT22;23285;50.180;7.036;2023-05-20T22:18:21;16.00;99.90
37426;DHT22;23285;50.180;7.036;2023-05-20T22:21:08;15.80;99.90
37426;DHT22;23285;50.180;7.036;2023-05-20T22:23:54;15.60;99.90
37426;DHT22;23285;50.180;7.036;2023-05-20T22:35:04;15.80;99.90
37426;DHT22;23285;50.180;7.036;2023-05-20T22:37:50;16.00;99.90
37426;DHT22;23285;50.180;7.036;2023-05-20T22:43:25;16.00;99.90
37426;DHT22;23285;50.180;7.036;2023-05-20T22:46:11;15.50;99.90
37426;DHT22;23285;50.180;7.036;2023-05-20T22:48:57;15.50;99.90
37426;DHT22;23285;50.180;7.036;2023-05-20T22:51:45;15.60;99.90
37426;DHT22;23285;50.180;7.036;2023-05-20T22:54:32;15.70;99.90
37426;DHT22;23285;50.180;7.036;2023-05-20T22:57:19;15.70;99.90
37426;DHT22;23285;50.180;7.036;2023-05-20T23:00:06;15.80;99.90
37426;DHT22;23285;50.180;7.036;2023-05-20T23:02:54;15.90;99.90
37426;DHT22;23285;50.180;7.036;2023-05-20T23:05:40;15.70;99.90
37426;DHT22;23285;50.180;7.036;2023-05-20T23:08:28;15.70;99.90
37426;DHT22;23285;50.180;7.036;2023-05-20T23:11:14;15.90;99.90
37426;DHT22;23285;50.180;7.036;2023-05-20T23:16:47;15.80;99.90
37426;DHT22;23285;50.180;7.036;2023-05-20T23:19:33;15.70;99.90
37426;DHT22;23285;50.180;7.036;2023-05-20T23:22:20;15.70;99.90